Time;durP1;ratioP1;P1;durP2;ratioP2;P2;SDS_P1;SDS_P2;PMS_P1;PMS_P2;Temp;Humidity;BMP_temperature;BMP_pressure;BME280_temperature;BME280_humidity;BME280_pressure;Samples;Min_cycle;Max_cycle;Signal;HPM_P1;HPM_P2
2022/03/15 00:00:27;;;;;;;26.17;13.05;;;2.40;99.90;;;;;;4955881;28;20081;-73
2022/03/15 00:02:54;;;;;;;20.88;12.65;;;2.40;99.90;;;;;;4953081;28;20050;-73
2022/03/15 00:05:20;;;;;;;24.40;13.38;;;2.50;99.90;;;;;;4937472;29;20039;-73
2022/03/15 00:07:47;;;;;;;25.83;13.15;;;2.50;99.90;;;;;;4956887;28;20034;-73
2022/03/15 00:10:14;;;;;;;19.95;12.85;;;2.60;99.90;;;;;;4955827;28;20050;-73
2022/03/15 00:12:40;;;;;;;19.70;12.65;;;2.60;99.90;;;;;;4955698;28;20042;-73
2022/03/15 00:15:08;;;;;;;24.05;12.65;;;2.60;99.90;;;;;;4972400;28;20039;-73
2022/03/15 00:17:35;;;;;;;20.42;13.75;;;2.70;99.90;;;;;;4955839;28;20034;-73
2022/03/15 00:20:02;;;;;;;26.63;15.15;;;2.70;99.90;;;;;;4952656;29;20493;-73
2022/03/15 00:22:28;;;;;;;22.90;15.85;;;2.70;99.90;;;;;;4947620;28;20415;-73
2022/03/15 00:24:54;;;;;;;24.70;15.27;;;2.80;99.90;;;;;;4971877;28;20057;-73
2022/03/15 00:27:21;;;;;;;27.77;16.00;;;2.90;99.90;;;;;;4955809;28;20035;-73
2022/03/15 00:29:46;;;;;;;25.27;15.95;;;2.90;99.90;;;;;;4953571;28;20180;-73
2022/03/15 00:32:17;;;;;;;34.85;16.23;;;3.00;99.90;;;;;;4955721;28;20509;-73
2022/03/15 00:34:43;;;;;;;27.17;15.77;;;2.90;99.90;;;;;;4972157;28;20038;-73
2022/03/15 00:37:09;;;;;;;25.45;15.25;;;2.90;99.90;;;;;;4971926;28;20539;-73
2022/03/15 00:39:35;;;;;;;25.10;15.90;;;3.00;99.90;;;;;;4955278;28;20531;-73
2022/03/15 00:42:01;;;;;;;32.85;16.73;;;3.10;99.90;;;;;;4971520;28;20051;-73
2022/03/15 00:44:26;;;;;;;26.67;16.80;;;3.20;99.90;;;;;;4971751;28;20037;-73
2022/03/15 00:46:52;;;;;;;27.45;16.65;;;3.20;99.90;;;;;;4971818;28;20432;-72
2022/03/15 00:49:18;;;;;;;32.45;18.80;;;3.30;99.90;;;;;;4992995;28;20101;-74
2022/03/15 00:51:44;;;;;;;36.80;18.38;;;3.30;99.90;;;;;;4976333;28;20043;-73
2022/03/15 00:54:10;;;;;;;28.27;18.17;;;3.50;99.90;;;;;;4955554;28;20053;-73
2022/03/15 00:56:36;;;;;;;34.15;18.70;;;3.50;99.90;;;;;;4952255;28;20042;-73
2022/03/15 00:59:02;;;;;;;32.53;18.73;;;3.60;99.90;;;;;;4942897;28;20093;-74
2022/03/15 01:01:29;;;;;;;29.40;17.55;;;3.60;99.90;;;;;;4955867;28;20070;-73
2022/03/15 01:03:55;;;;;;;32.20;19.13;;;3.70;99.90;;;;;;4955202;28;20038;-73
2022/03/15 01:06:21;;;;;;;33.38;18.67;;;3.70;99.90;;;;;;4955154;28;20575;-73
2022/03/15 01:08:47;;;;;;;35.92;18.38;;;3.80;99.90;;;;;;4955016;28;20118;-73
2022/03/15 01:11:12;;;;;;;29.42;17.77;;;3.80;99.90;;;;;;4971384;28;20042;-73
2022/03/15 01:13:38;;;;;;;26.95;17.15;;;3.80;99.90;;;;;;4971172;28;20046;-73
2022/03/15 01:16:04;;;;;;;28.50;15.80;;;3.80;99.90;;;;;;4971301;28;20038;-73
2022/03/15 01:18:30;;;;;;;23.40;16.13;;;3.80;99.90;;;;;;4953916;28;20043;-73
2022/03/15 01:20:56;;;;;;;23.20;15.77;;;3.80;99.90;;;;;;4952302;29;20047;-73
2022/03/15 01:23:21;;;;;;;26.25;13.85;;;3.70;99.90;;;;;;4951948;28;20083;-73
2022/03/15 01:25:47;;;;;;;21.63;13.75;;;3.70;99.90;;;;;;4951983;29;20533;-73
2022/03/15 01:28:13;;;;;;;24.25;13.55;;;3.70;99.90;;;;;;4964326;28;20031;-73
2022/03/15 01:30:39;;;;;;;19.90;12.85;;;3.70;99.90;;;;;;4954767;28;20039;-73
2022/03/15 01:33:05;;;;;;;22.30;14.38;;;3.60;99.90;;;;;;4971296;28;20125;-73
2022/03/15 01:35:30;;;;;;;24.67;15.23;;;3.70;99.90;;;;;;4971116;28;20515;-73
2022/03/15 01:37:56;;;;;;;28.77;14.50;;;3.60;99.90;;;;;;4971362;28;20051;-73
2022/03/15 01:40:22;;;;;;;26.75;14.68;;;3.60;99.90;;;;;;4970739;28;20042;-73
2022/03/15 01:42:47;;;;;;;24.77;14.52;;;3.60;99.90;;;;;;4987373;28;20046;-73
2022/03/15 01:45:13;;;;;;;25.70;15.05;;;3.60;99.90;;;;;;4954428;28;20357;-73
2022/03/15 01:47:39;;;;;;;24.33;14.55;;;3.60;99.90;;;;;;4971272;28;20047;-73
2022/03/15 01:50:05;;;;;;;26.65;15.45;;;3.50;99.90;;;;;;4951549;29;20476;-73
2022/03/15 01:52:31;;;;;;;25.77;15.13;;;3.50;99.90;;;;;;4951738;28;20074;-74
2022/03/15 01:54:57;;;;;;;24.77;15.35;;;3.40;99.90;;;;;;4961092;28;20085;-73
2022/03/15 01:57:23;;;;;;;24.15;15.60;;;3.40;99.90;;;;;;4971091;28;20131;-73
2022/03/15 01:59:48;;;;;;;26.95;15.80;;;3.30;99.90;;;;;;4971011;28;20408;-73
2022/03/15 02:02:14;;;;;;;24.08;15.82;;;3.30;99.90;;;;;;4955739;28;20044;-73
2022/03/15 02:04:40;;;;;;;28.60;16.35;;;3.20;99.90;;;;;;4974019;28;20039;-73
2022/03/15 02:07:13;;;;;;;32.33;18.92;;;3.20;99.90;;;;;;4958345;28;20104;-72
2022/03/15 02:09:40;;;;;;;;;;;3.20;99.90;;;;;;4958454;28;20038;-73
2022/03/15 02:12:06;;;;;;;28.88;16.42;;;3.10;99.90;;;;;;4958355;28;19918;-73
2022/03/15 02:14:32;;;;;;;29.67;17.35;;;3.10;99.90;;;;;;4957820;28;20050;-73
2022/03/15 02:17:00;;;;;;;31.10;17.67;;;3.10;99.90;;;;;;4958452;28;20039;-73
2022/03/15 02:19:27;;;;;;;30.45;17.65;;;3.10;99.90;;;;;;4954687;28;20127;-73
2022/03/15 02:21:53;;;;;;;32.83;18.67;;;3.00;99.90;;;;;;4947511;28;20039;-73
2022/03/15 02:24:19;;;;;;;33.80;19.58;;;3.00;99.90;;;;;;4958068;28;20046;-73
2022/03/15 02:26:45;;;;;;;31.70;18.50;;;3.00;99.90;;;;;;4957923;28;20035;-73
2022/03/15 02:29:11;;;;;;;34.60;17.83;;;2.90;99.90;;;;;;4958298;28;20101;-73
2022/03/15 02:31:37;;;;;;;35.13;18.40;;;2.90;99.90;;;;;;4957866;28;20481;-73
2022/03/15 02:34:02;;;;;;;26.70;17.00;;;2.80;99.90;;;;;;4960163;28;20117;-73
2022/03/15 02:36:28;;;;;;;30.98;16.63;;;2.80;99.90;;;;;;4961700;28;20038;-73
2022/03/15 02:38:54;;;;;;;27.05;16.48;;;2.70;99.90;;;;;;4957432;28;20464;-73
2022/03/15 02:41:19;;;;;;;29.00;17.05;;;2.70;99.90;;;;;;4973790;28;20078;-73
2022/03/15 02:43:45;;;;;;;32.08;17.65;;;2.60;99.90;;;;;;4957892;28;20508;-73
2022/03/15 02:46:11;;;;;;;34.03;19.13;;;2.60;99.90;;;;;;4957919;28;20042;-73
2022/03/15 02:48:37;;;;;;;29.67;18.77;;;2.70;99.90;;;;;;4957258;28;20046;-73
2022/03/15 02:51:10;;;;;;;35.75;18.27;;;2.60;99.90;;;;;;4973585;28;20509;-73
2022/03/15 02:53:37;;;;;;;24.30;16.42;;;2.60;99.90;;;;;;4957518;28;20527;-73
2022/03/15 02:56:11;;;;;;;30.02;16.52;;;2.50;99.90;;;;;;4957447;28;20057;-73
2022/03/15 02:58:41;;;;;;;27.98;16.02;;;2.50;99.90;;;;;;4957510;28;20038;-73
2022/03/15 03:01:07;;;;;;;28.42;16.77;;;2.40;99.90;;;;;;4957504;28;20042;-74
2022/03/15 03:03:34;;;;;;;31.77;17.25;;;2.40;99.90;;;;;;4953696;28;20035;-73
2022/03/15 03:06:00;;;;;;;26.52;17.83;;;2.30;99.90;;;;;;4938096;29;20151;-72
2022/03/15 03:08:27;;;;;;;31.00;18.60;;;2.30;99.90;;;;;;4939984;28;20085;-73
2022/03/15 03:10:54;;;;;;;32.47;18.27;;;2.30;99.90;;;;;;4957392;28;20046;-73
2022/03/15 03:13:25;;;;;;;35.08;19.17;;;2.30;99.90;;;;;;4952794;28;20043;-73
2022/03/15 03:15:54;;;;;;;38.13;20.77;;;2.30;99.90;;;;;;4937922;29;20043;-73
2022/03/15 03:18:20;;;;;;;32.22;18.45;;;2.30;99.90;;;;;;4954904;28;20105;-73
2022/03/15 03:20:46;;;;;;;30.10;19.33;;;2.50;99.90;;;;;;4957544;28;20046;-73
2022/03/15 03:23:14;;;;;;;31.42;19.13;;;2.40;99.90;;;;;;4956725;28;20039;-73
2022/03/15 03:25:41;;;;;;;30.60;18.35;;;2.40;99.90;;;;;;4957023;28;20038;-73
2022/03/15 03:28:08;;;;;;;32.70;20.77;;;2.50;99.90;;;;;;4957032;28;20125;-73
2022/03/15 03:30:37;;;;;;;29.13;20.58;;;2.50;99.90;;;;;;4953577;29;20130;-73
2022/03/15 03:33:03;;;;;;;28.35;19.60;;;2.50;99.90;;;;;;4956265;28;20045;-73
2022/03/15 03:35:30;;;;;;;28.02;19.38;;;2.50;99.90;;;;;;4953654;29;20031;-73
2022/03/15 03:37:56;;;;;;;32.35;21.13;;;2.50;99.90;;;;;;4942754;28;20041;-73
2022/03/15 03:40:22;;;;;;;30.05;20.65;;;2.50;99.90;;;;;;4956454;28;20576;-73
2022/03/15 03:42:47;;;;;;;32.70;20.30;;;2.50;99.90;;;;;;4955624;28;20042;-74
2022/03/15 03:45:13;;;;;;;35.85;21.63;;;2.50;99.90;;;;;;4956882;28;20130;-73
2022/03/15 03:47:39;;;;;;;40.20;22.85;;;2.50;99.90;;;;;;4956365;28;20070;-73
2022/03/15 03:50:08;;;;;;;34.17;21.35;;;2.60;99.90;;;;;;4956039;28;20031;-73
2022/03/15 03:52:33;;;;;;;36.17;22.52;;;2.70;99.90;;;;;;4956454;28;20058;-73
2022/03/15 03:55:00;;;;;;;36.58;22.23;;;2.70;99.90;;;;;;4972568;28;20038;-74
2022/03/15 03:57:25;;;;;;;40.83;23.88;;;2.70;99.90;;;;;;4956179;28;20073;-73
2022/03/15 03:59:51;;;;;;;32.35;22.55;;;2.60;99.90;;;;;;4952967;29;20083;-73
2022/03/15 04:02:17;;;;;;;36.13;23.77;;;2.70;99.90;;;;;;4953071;28;20047;-73
2022/03/15 04:04:45;;;;;;;40.45;26.15;;;2.80;99.90;;;;;;4946006;28;20043;-73
2022/03/15 04:07:12;;;;;;;43.33;27.65;;;2.70;99.90;;;;;;4972106;28;20039;-74
2022/03/15 04:09:39;;;;;;;48.90;28.52;;;2.80;99.90;;;;;;4956295;28;20043;-73
2022/03/15 04:12:06;;;;;;;45.45;26.92;;;2.80;99.90;;;;;;4973110;28;20049;-73
2022/03/15 04:14:34;;;;;;;49.58;28.98;;;2.80;99.90;;;;;;4956128;28;20035;-74
2022/03/15 04:17:00;;;;;;;46.70;27.02;;;2.90;99.90;;;;;;4956002;28;20035;-74
2022/03/15 04:19:28;;;;;;;46.22;26.77;;;2.90;99.90;;;;;;4955782;28;20054;-74
2022/03/15 04:21:54;;;;;;;38.28;25.45;;;2.90;99.90;;;;;;4955821;28;20401;-73
2022/03/15 04:24:20;;;;;;;38.83;25.42;;;3.00;99.90;;;;;;4956013;28;20089;-73
2022/03/15 04:26:47;;;;;;;42.45;24.60;;;3.00;99.90;;;;;;4955304;28;20571;-73
2022/03/15 04:29:13;;;;;;;44.22;25.20;;;3.00;99.90;;;;;;4952733;29;20035;-73
2022/03/15 04:31:39;;;;;;;37.53;24.30;;;3.00;99.90;;;;;;4936858;28;20047;-73
2022/03/15 04:34:04;;;;;;;34.20;24.58;;;3.10;99.90;;;;;;4952484;28;20046;-73
2022/03/15 04:36:30;;;;;;;37.05;26.20;;;3.10;99.90;;;;;;4988165;28;20078;-73
2022/03/15 04:38:56;;;;;;;40.15;26.27;;;3.10;99.90;;;;;;4952761;29;20051;-73
2022/03/15 04:41:21;;;;;;;37.17;23.60;;;3.10;99.90;;;;;;4937045;29;20044;-73
2022/03/15 04:43:47;;;;;;;41.05;25.13;;;3.10;99.90;;;;;;4936635;29;20054;-73
2022/03/15 04:46:13;;;;;;;43.47;26.98;;;3.10;99.90;;;;;;4937978;28;20078;-73
2022/03/15 04:48:39;;;;;;;39.70;25.50;;;3.10;99.90;;;;;;4955440;28;20035;-73
2022/03/15 04:51:05;;;;;;;40.88;26.23;;;3.20;99.90;;;;;;4956352;28;20046;-73
2022/03/15 04:53:35;;;;;;;47.13;27.40;;;3.20;99.90;;;;;;4956317;28;20414;-73
2022/03/15 04:56:01;;;;;;;39.58;26.45;;;3.20;99.90;;;;;;4956412;28;20038;-73
2022/03/15 04:58:26;;;;;;;56.80;30.13;;;3.20;99.90;;;;;;4972448;28;20449;-73
2022/03/15 05:00:52;;;;;;;51.45;29.50;;;3.30;99.90;;;;;;4955519;28;20587;-73
2022/03/15 05:03:18;;;;;;;53.53;30.80;;;3.30;99.90;;;;;;4955836;28;20228;-73
2022/03/15 05:05:47;;;;;;;54.33;30.95;;;3.50;99.90;;;;;;4971864;28;20038;-73
2022/03/15 05:08:12;;;;;;;53.13;30.83;;;3.50;99.90;;;;;;4955933;28;20046;-73
2022/03/15 05:13:23;;;;;;;53.33;31.02;;;3.60;99.90;;;;;;4971791;28;20047;-73
2022/03/15 05:15:49;;;;;;;58.13;31.05;;;3.70;99.90;;;;;;4955387;28;20070;-73
2022/03/15 05:18:14;;;;;;;55.17;30.30;;;3.70;99.90;;;;;;4973774;28;20077;-74
2022/03/15 05:20:40;;;;;;;54.40;31.23;;;3.80;99.90;;;;;;4977390;28;20493;-73
2022/03/15 05:23:06;;;;;;;54.92;29.88;;;3.80;99.90;;;;;;4971848;28;20504;-73
2022/03/15 05:25:32;;;;;;;47.17;29.60;;;3.80;99.90;;;;;;4955622;28;20039;-73
2022/03/15 05:27:57;;;;;;;53.50;29.98;;;3.80;99.90;;;;;;4955814;28;20046;-73
2022/03/15 05:30:23;;;;;;;56.45;31.08;;;3.80;99.90;;;;;;4956177;28;20042;-73
2022/03/15 05:32:49;;;;;;;49.38;30.13;;;3.80;99.90;;;;;;4952337;28;20046;-73
2022/03/15 05:35:16;;;;;;;48.75;27.85;;;3.80;99.90;;;;;;4971798;28;20038;-73
2022/03/15 05:37:41;;;;;;;53.05;29.17;;;3.80;99.90;;;;;;4956966;28;20034;-73
2022/03/15 05:40:09;;;;;;;54.15;30.08;;;3.90;99.90;;;;;;4975559;28;20050;-73
2022/03/15 05:42:35;;;;;;;54.70;30.52;;;3.90;99.90;;;;;;4958872;28;20085;-73
2022/03/15 05:45:02;;;;;;;49.28;30.50;;;3.90;99.90;;;;;;4959427;28;20401;-73
2022/03/15 05:47:27;;;;;;;53.97;29.20;;;3.90;99.90;;;;;;4976913;28;20057;-73
2022/03/15 05:49:55;;;;;;;55.20;31.25;;;4.00;99.90;;;;;;4991513;28;20039;-73
2022/03/15 05:52:21;;;;;;;59.97;31.00;;;4.00;99.90;;;;;;4974942;28;20042;-73
2022/03/15 05:54:46;;;;;;;59.08;32.67;;;4.00;99.90;;;;;;4958529;28;20129;-73
2022/03/15 05:57:12;;;;;;;64.10;32.80;;;4.00;99.90;;;;;;4956031;29;20043;-73
2022/03/15 05:59:38;;;;;;;65.97;34.20;;;4.10;99.90;;;;;;4940149;29;20050;-73
2022/03/15 06:02:04;;;;;;;59.95;32.78;;;4.10;99.90;;;;;;4939806;29;20536;-73
2022/03/15 06:04:29;;;;;;;65.82;33.60;;;4.20;99.90;;;;;;4958254;28;20074;-73
2022/03/15 06:06:55;;;;;;;64.45;34.17;;;4.20;99.90;;;;;;4958512;28;20080;-73
2022/03/15 06:09:23;;;;;;;56.95;33.72;;;4.20;99.90;;;;;;4955264;29;20074;-73
2022/03/15 06:11:49;;;;;;;60.70;34.05;;;4.20;99.90;;;;;;4939694;28;20054;-73
2022/03/15 06:14:15;;;;;;;57.95;32.08;;;4.30;99.90;;;;;;4956761;28;20046;-73
2022/03/15 06:16:40;;;;;;;64.85;35.63;;;4.30;99.90;;;;;;4974509;28;20050;-73
2022/03/15 06:19:06;;;;;;;59.20;33.97;;;4.40;99.90;;;;;;4974603;28;20047;-73
2022/03/15 06:21:32;;;;;;;62.40;34.90;;;4.40;99.90;;;;;;4955555;29;20039;-73
2022/03/15 06:23:58;;;;;;;58.42;34.58;;;4.50;99.90;;;;;;4971414;28;20047;-73
2022/03/15 06:26:24;;;;;;;56.92;34.00;;;4.50;99.90;;;;;;4974773;28;20094;-73
2022/03/15 06:28:49;;;;;;;58.70;34.17;;;4.50;99.90;;;;;;4973733;28;20464;-73
2022/03/15 06:31:15;;;;;;;61.20;32.80;;;4.50;99.90;;;;;;4958063;28;20448;-73
2022/03/15 06:33:47;;;;;;;59.33;33.25;;;4.50;99.90;;;;;;4973859;28;20068;-73
2022/03/15 06:36:14;;;;;;;53.63;32.42;;;4.60;99.90;;;;;;4974049;28;20718;-73
2022/03/15 06:38:43;;;;;;;57.45;33.10;;;4.60;99.90;;;;;;4958583;28;20042;-73
2022/03/15 06:41:11;;;;;;;57.20;33.15;;;4.70;99.90;;;;;;4958650;28;20070;-73
2022/03/15 06:43:37;;;;;;;58.38;33.22;;;4.80;99.90;;;;;;4975584;28;20047;-73
2022/03/15 06:46:02;;;;;;;54.85;34.25;;;4.80;99.90;;;;;;4975145;28;20513;-73
2022/03/15 06:48:28;;;;;;;58.50;33.45;;;4.80;99.90;;;;;;4974964;28;20047;-73
2022/03/15 06:50:54;;;;;;;56.15;33.58;;;4.90;99.90;;;;;;4958817;28;20074;-74
2022/03/15 06:53:20;;;;;;;55.53;33.13;;;5.00;99.90;;;;;;4974302;28;20046;-73
2022/03/15 06:55:46;;;;;;;50.47;32.53;;;5.00;99.90;;;;;;4975642;28;20066;-73
2022/03/15 06:58:12;;;;;;;54.53;32.75;;;5.00;99.90;;;;;;4974168;28;20039;-73
2022/03/15 07:00:38;;;;;;;51.88;32.15;;;5.10;99.90;;;;;;4974143;28;20114;-73
2022/03/15 07:03:04;;;;;;;55.78;34.40;;;5.10;99.90;;;;;;4958032;28;20038;-73
2022/03/15 07:05:30;;;;;;;51.83;32.80;;;5.20;99.90;;;;;;4974558;28;20050;-73
2022/03/15 07:07:56;;;;;;;56.38;34.55;;;5.20;99.90;;;;;;4958239;28;20407;-73
2022/03/15 07:10:23;;;;;;;55.83;35.45;;;5.30;99.90;;;;;;4974039;28;20042;-73
2022/03/15 07:12:49;;;;;;;50.72;33.72;;;5.30;99.90;;;;;;4973212;28;20041;-73
2022/03/15 07:15:17;;;;;;;50.90;32.45;;;5.40;99.90;;;;;;4973827;28;20121;-74
2022/03/15 07:17:51;;;;;;;51.60;33.35;;;5.40;99.90;;;;;;4973159;28;20560;-75
2022/03/15 07:20:22;;;;;;;52.55;34.00;;;5.50;99.90;;;;;;4957663;28;20042;-73
2022/03/15 07:22:48;;;;;;;48.80;33.17;;;5.60;99.90;;;;;;4955652;28;20415;-74
2022/03/15 07:25:20;;;;;;;47.65;32.88;;;5.70;99.90;;;;;;4956972;28;20098;-74
2022/03/15 07:27:48;;;;;;;50.83;32.58;;;5.70;99.90;;;;;;4957256;28;20073;-74
2022/03/15 07:30:15;;;;;;;49.30;33.58;;;5.80;99.90;;;;;;4957310;28;20142;-74
2022/03/15 07:32:43;;;;;;;45.70;33.63;;;5.80;99.90;;;;;;4950991;29;20042;-74
2022/03/15 07:35:09;;;;;;;50.50;33.95;;;5.90;99.90;;;;;;4954008;29;20492;-75
2022/03/15 07:37:47;;;;;;;48.83;32.15;;;6.00;99.90;;;;;;4958327;28;20090;-74
2022/03/15 07:40:19;;;;;;;48.92;33.45;;;6.00;99.90;;;;;;4956115;28;20042;-75
2022/03/15 07:42:49;;;;;;;49.20;31.77;;;6.10;99.90;;;;;;4955870;28;20432;-74
2022/03/15 07:45:15;;;;;;;46.35;31.45;;;6.10;99.90;;;;;;4972995;28;20043;-74
2022/03/15 07:47:43;;;;;;;44.03;31.25;;;6.20;99.90;;;;;;4955775;28;20049;-74
2022/03/15 07:50:10;;;;;;;42.97;30.52;;;6.20;99.90;;;;;;4956405;28;20097;-74
2022/03/15 07:52:38;;;;;;;42.90;32.13;;;6.20;99.90;;;;;;4956128;28;20042;-75
2022/03/15 07:55:08;;;;;;;44.13;29.92;;;6.30;99.90;;;;;;4952631;28;20512;-75
2022/03/15 07:57:49;;;;;;;40.85;29.80;;;6.30;99.90;;;;;;4956402;28;20046;-75
2022/03/15 08:00:15;;;;;;;40.35;29.40;;;6.40;99.90;;;;;;4956235;28;20736;-75
2022/03/15 08:02:42;;;;;;;40.45;30.13;;;6.40;99.90;;;;;;4956028;28;20039;-75
2022/03/15 08:05:11;;;;;;;41.08;30.00;;;6.40;99.90;;;;;;4964709;28;20073;-75
2022/03/15 08:07:40;;;;;;;44.65;31.20;;;6.50;99.90;;;;;;4972613;28;20093;-75
2022/03/15 08:10:12;;;;;;;38.53;28.13;;;6.50;99.90;;;;;;4956787;28;20035;-75
2022/03/15 08:12:43;;;;;;;39.05;30.33;;;6.60;99.90;;;;;;4972528;28;20142;-75
2022/03/15 08:15:13;;;;;;;42.63;30.00;;;6.60;99.90;;;;;;4952833;29;20035;-75
2022/03/15 08:17:43;;;;;;;38.28;28.88;;;6.60;99.90;;;;;;4937233;29;20370;-75
2022/03/15 08:20:20;;;;;;;37.22;27.88;;;6.70;99.90;;;;;;4937452;29;20525;-75
2022/03/15 08:22:49;;;;;;;43.17;27.80;;;6.70;99.90;;;;;;4937081;29;20094;-75
2022/03/15 08:25:17;;;;;;;35.67;27.10;;;6.80;99.90;;;;;;4943838;28;20070;-75
2022/03/15 08:27:54;;;;;;;39.33;26.38;;;6.80;99.90;;;;;;4971824;28;20069;-75
2022/03/15 08:30:27;;;;;;;35.10;26.05;;;6.80;99.90;;;;;;4956359;28;20377;-75
2022/03/15 08:32:56;;;;;;;34.97;27.10;;;6.90;99.90;;;;;;4954446;28;20038;-75
2022/03/15 08:35:59;;;;;;;35.45;25.08;;;6.90;99.90;;;;;;4975294;28;20046;-75
2022/03/15 08:38:34;;;;;;;38.10;26.63;;;6.90;99.90;;;;;;4955400;28;20082;-75
2022/03/15 08:41:23;;;;;;;36.22;27.05;;;7.00;99.90;;;;;;4954528;28;20046;-80
2022/03/15 08:44:09;;;;;;;34.95;27.25;;;7.00;99.90;;;;;;4967336;28;20133;-75
2022/03/15 08:46:47;;;;;;;39.40;27.10;;;7.10;99.90;;;;;;4950367;29;20405;-75
2022/03/15 08:50:07;;;;;;;36.25;27.02;;;7.10;99.90;;;;;;4935994;29;20047;-75
2022/03/15 08:52:50;;;;;;;33.88;27.30;;;7.10;99.90;;;;;;4946834;29;20047;-75
2022/03/15 08:55:16;;;;;;;40.05;28.33;;;7.20;99.90;;;;;;4954455;28;20039;-74
2022/03/15 08:57:44;;;;;;;37.05;27.20;;;7.20;99.90;;;;;;4955750;28;20093;-74
2022/03/15 09:00:20;;;;;;;36.72;27.60;;;7.20;99.90;;;;;;4955144;28;20047;-76
2022/03/15 09:03:17;;;;;;;35.85;27.50;;;7.30;99.90;;;;;;4972894;28;20063;-81
2022/03/15 09:06:04;;;;;;;37.83;28.02;;;7.40;99.90;;;;;;4960253;28;20164;-75
2022/03/15 09:08:42;;;;;;;38.58;28.35;;;7.40;99.90;;;;;;4972474;28;20054;-75
2022/03/15 09:11:45;;;;;;;38.10;28.52;;;7.40;99.90;;;;;;4971653;28;20509;-75
2022/03/15 09:14:24;;;;;;;35.65;26.48;;;7.50;99.90;;;;;;4960240;28;20133;-75
2022/03/15 09:16:50;;;;;;;35.67;27.42;;;7.60;99.90;;;;;;4959554;28;20053;-75
2022/03/15 09:19:16;;;;;;;37.97;28.05;;;7.80;99.90;;;;;;4960270;28;20125;-75
2022/03/15 09:24:50;;;;;;;35.83;28.20;;;7.80;99.90;;;;;;4974883;28;20034;-75
2022/03/15 09:27:22;;;;;;;32.40;26.33;;;8.00;99.90;;;;;;4975629;28;20235;-78
2022/03/15 09:29:50;;;;;;;32.90;26.10;;;7.90;99.90;;;;;;4975965;28;20041;-73
2022/03/15 09:32:16;;;;;;;31.63;25.48;;;8.10;99.90;;;;;;4958353;28;20125;-73
2022/03/15 09:35:14;;;;;;;32.45;24.63;;;8.10;99.90;;;;;;4959171;28;20104;-78
2022/03/15 09:37:47;;;;;;;32.97;24.35;;;8.20;99.90;;;;;;4958594;28;20038;-76
2022/03/15 09:40:21;;;;;;;29.20;23.63;;;8.30;99.90;;;;;;4954910;28;20039;-75
2022/03/15 09:43:08;;;;;;;28.77;23.48;;;8.30;99.90;;;;;;4976171;28;20400;-78
2022/03/15 09:45:35;;;;;;;29.38;23.02;;;8.30;99.90;;;;;;4974013;28;20093;-74
2022/03/15 09:48:15;;;;;;;31.60;24.90;;;8.30;99.90;;;;;;4958154;28;20035;-76
2022/03/15 09:50:52;;;;;;;31.42;25.23;;;8.30;99.90;;;;;;4956792;28;20109;-75
2022/03/15 09:53:20;;;;;;;34.40;25.08;;;8.30;99.90;;;;;;4974474;28;20057;-74
2022/03/15 09:55:47;;;;;;;29.35;24.33;;;8.40;99.90;;;;;;4958520;28;20057;-74
2022/03/15 09:58:18;;;;;;;31.50;25.58;;;8.40;99.90;;;;;;4958521;28;20425;-74
2022/03/15 10:04:32;;;;;;;32.70;24.40;;;8.60;99.90;;;;;;4959399;28;20039;-74
2022/03/15 10:07:04;;;;;;;30.25;24.25;;;8.60;99.90;;;;;;4956209;28;20493;-74
2022/03/15 10:09:39;;;;;;;30.45;23.30;;;8.80;99.90;;;;;;4955751;28;20043;-74
2022/03/15 10:12:05;;;;;;;31.13;23.50;;;8.90;99.90;;;;;;4961193;28;20105;-74
2022/03/15 10:14:47;;;;;;;29.75;24.20;;;9.00;99.90;;;;;;4957466;28;20043;-74
2022/03/15 10:17:15;;;;;;;30.30;24.08;;;9.10;99.90;;;;;;4956879;28;20039;-76
2022/03/15 10:19:56;;;;;;;33.10;24.65;;;9.20;99.90;;;;;;4958610;28;20519;-73
2022/03/15 10:22:24;;;;;;;33.80;24.40;;;9.30;99.90;;;;;;4956918;28;20041;-73
2022/03/15 10:24:50;;;;;;;26.50;21.58;;;9.50;99.90;;;;;;4973476;28;20053;-74
2022/03/15 10:27:16;;;;;;;28.25;22.27;;;9.60;99.90;;;;;;4958211;28;20039;-73
2022/03/15 10:29:43;;;;;;;27.50;21.20;;;9.60;99.90;;;;;;4973563;28;20039;-72
2022/03/15 10:32:13;;;;;;;29.15;22.75;;;9.80;99.90;;;;;;4973465;28;20046;-73
2022/03/15 10:34:39;;;;;;;29.00;21.45;;;9.90;99.90;;;;;;4957464;28;20042;-74
2022/03/15 10:37:05;;;;;;;28.15;20.90;;;10.10;99.90;;;;;;4954386;29;20194;-73
2022/03/15 10:39:30;;;;;;;25.02;19.90;;;10.20;99.90;;;;;;4947255;28;20080;-74
2022/03/15 10:41:59;;;;;;;26.60;20.75;;;10.30;99.90;;;;;;4973174;28;20047;-73
2022/03/15 10:44:28;;;;;;;25.35;20.02;;;10.40;99.90;;;;;;4956043;28;20050;-74
2022/03/15 10:47:11;;;;;;;24.42;18.83;;;10.40;99.90;;;;;;4973515;28;20576;-79
2022/03/15 10:49:49;;;;;;;22.40;18.60;;;10.40;99.90;;;;;;4959487;28;20086;-74
2022/03/15 10:52:40;;;;;;;20.67;18.25;;;10.40;99.90;;;;;;4960208;28;20134;-75
2022/03/15 10:55:28;;;;;;;23.33;18.33;;;10.50;99.90;;;;;;4954332;28;20062;-77
2022/03/15 10:58:02;;;;;;;21.95;17.95;;;10.60;99.90;;;;;;4973385;28;20039;-75
2022/03/15 11:00:36;;;;;;;23.70;19.38;;;10.60;99.90;;;;;;4957872;28;20250;-74
2022/03/15 11:03:02;;;;;;;23.48;18.27;;;10.60;99.90;;;;;;4973149;28;20082;-75
2022/03/15 11:05:29;;;;;;;25.00;18.58;;;10.70;99.90;;;;;;4957549;28;20532;-76
2022/03/15 11:08:20;;;;;;;25.90;18.35;;;10.70;99.90;;;;;;4957089;28;20034;-76
2022/03/15 11:11:06;;;;;;;19.90;17.25;;;10.80;99.90;;;;;;4974243;28;20043;-76
2022/03/15 11:13:32;;;;;;;;;;;10.90;99.90;;;;;;4957748;28;20173;-76
2022/03/15 11:16:06;;;;;;;21.42;16.83;;;10.90;99.90;;;;;;4957282;28;19921;-75
2022/03/15 11:18:51;;;;;;;20.60;16.35;;;11.10;99.90;;;;;;4958211;28;20543;-75
2022/03/15 11:21:20;;;;;;;21.55;16.05;;;11.10;99.90;;;;;;4958036;28;20129;-77
2022/03/15 11:23:51;;;;;;;22.27;17.40;;;11.00;99.90;;;;;;4956650;28;20059;-74
2022/03/15 11:26:24;;;;;;;25.05;17.00;;;11.00;99.90;;;;;;4957052;28;20086;-73
2022/03/15 11:28:51;;;;;;;20.58;15.80;;;11.20;99.90;;;;;;4954167;28;20175;-74
2022/03/15 11:31:20;;;;;;;22.25;16.90;;;11.30;99.90;;;;;;4956300;28;20042;-74
2022/03/15 11:33:50;;;;;;;22.15;16.23;;;11.40;99.90;;;;;;4956129;28;20042;-74
2022/03/15 11:36:18;;;;;;;20.27;14.40;;;11.40;99.90;;;;;;4948056;28;20485;-75
2022/03/15 11:38:44;;;;;;;22.33;15.68;;;11.50;99.90;;;;;;4956033;28;20533;-75
2022/03/15 11:41:10;;;;;;;17.67;14.57;;;11.50;99.90;;;;;;4953042;29;20051;-75
2022/03/15 11:44:01;;;;;;;20.30;15.20;;;11.60;99.90;;;;;;4937771;29;20162;-75
2022/03/15 11:46:43;;;;;;;20.90;14.43;;;11.60;99.90;;;;;;4941245;28;20401;-75
2022/03/15 11:49:32;;;;;;;21.15;16.20;;;11.60;99.90;;;;;;4954611;28;20489;-76
2022/03/15 11:52:26;;;;;;;19.83;16.40;;;11.70;99.90;;;;;;4956490;28;20097;-75
2022/03/15 11:55:31;;;;;;;19.42;15.23;;;11.80;99.90;;;;;;4959935;28;20034;-74
2022/03/15 11:58:07;;;;;;;21.15;15.23;;;11.80;99.90;;;;;;4956203;28;20485;-76
2022/03/15 12:00:46;;;;;;;20.73;15.48;;;11.90;99.90;;;;;;4955271;28;20039;-76
2022/03/15 12:03:18;;;;;;;21.10;15.13;;;11.90;99.90;;;;;;4957561;28;20045;-74
2022/03/15 12:05:48;;;;;;;23.73;17.63;;;12.00;99.90;;;;;;4955754;28;20102;-74
2022/03/15 12:08:23;;;;;;;21.45;16.70;;;12.20;99.90;;;;;;4952324;28;20121;-75
2022/03/15 12:11:01;;;;;;;20.98;15.50;;;12.20;99.90;;;;;;4955606;28;20158;-74
2022/03/15 12:13:43;;;;;;;22.65;16.33;;;12.20;99.90;;;;;;4958411;28;20078;-74
2022/03/15 12:16:33;;;;;;;19.00;15.27;;;12.20;99.90;;;;;;4969003;28;20089;-74
2022/03/15 12:22:06;;;;;;;21.27;16.48;;;12.30;99.90;;;;;;4972136;28;20046;-74
2022/03/15 12:24:39;;;;;;;18.80;16.07;;;12.30;99.90;;;;;;4954692;28;20046;-74
2022/03/15 12:27:08;;;;;;;18.02;15.00;;;12.40;99.90;;;;;;4972303;28;20046;-74
2022/03/15 12:29:36;;;;;;;19.15;15.43;;;12.40;99.90;;;;;;4971911;28;20129;-74
2022/03/15 12:32:18;;;;;;;19.73;15.23;;;12.40;99.90;;;;;;4972159;28;20050;-74
2022/03/15 12:34:45;;;;;;;22.85;15.88;;;12.40;99.90;;;;;;4971465;28;20077;-74
2022/03/15 12:37:13;;;;;;;19.58;15.93;;;12.40;99.90;;;;;;4954652;28;20077;-76
2022/03/15 12:39:52;;;;;;;20.00;15.13;;;12.50;99.90;;;;;;4953319;28;20034;-76
2022/03/15 12:42:29;;;;;;;22.30;16.50;;;12.70;99.90;;;;;;4958899;28;20057;-76
2022/03/15 12:45:10;;;;;;;18.85;14.88;;;13.50;99.90;;;;;;4974745;28;20398;-76
2022/03/15 12:47:43;;;;;;;19.25;14.60;;;14.50;99.90;;;;;;4967285;28;20034;-75
2022/03/15 12:50:18;;;;;;;16.65;13.07;;;15.50;99.90;;;;;;4971630;28;20129;-76
2022/03/15 12:52:50;;;;;;;14.48;11.65;;;16.30;99.90;;;;;;4991300;28;20122;-76
2022/03/15 12:55:16;;;;;;;14.02;11.02;;;16.80;95.80;;;;;;4958249;28;20050;-76
2022/03/15 12:57:48;;;;;;;13.73;11.70;;;17.20;92.70;;;;;;4948481;28;20559;-76
2022/03/15 13:00:18;;;;;;;15.77;11.18;;;17.40;89.10;;;;;;4961436;28;20056;-76